sensor_id;sensor_type;location;lat;lon;timestamp;pressure;altitude;pressure_sealevel;temperature;humidity
78431;BME280;67727;50.236;22.452;2023-10-19T00:01:57;99331.98;;;1.27;80.43
78431;BME280;67727;50.236;22.452;2023-10-19T00:04:27;99329.54;;;1.25;80.39
78431;BME280;67727;50.236;22.452;2023-10-19T00:06:59;99328.32;;;1.21;80.15
78431;BME280;67727;50.236;22.452;2023-10-19T00:09:26;99321.27;;;1.16;80.05
78431;BME280;67727;50.236;22.452;2023-10-19T00:11:58;99319.46;;;1.10;80.48
78431;BME280;67727;50.236;22.452;2023-10-19T00:14:25;99315.02;;;1.07;80.25
78431;BME280;67727;50.236;22.452;2023-10-19T00:16:52;99311.17;;;1.05;80.16
78431;BME280;67727;50.236;22.452;2023-10-19T00:19:33;99306.32;;;1.05;80.52
78431;BME280;67727;50.236;22.452;2023-10-19T00:22:06;99304.39;;;1.07;80.58
78431;BME280;67727;50.236;22.452;2023-10-19T00:24:42;99305.33;;;1.08;80.79
78431;BME280;67727;50.236;22.452;2023-10-19T00:27:10;99304.70;;;1.10;81.02
78431;BME280;67727;50.236;22.452;2023-10-19T00:29:43;99304.67;;;1.10;80.77
78431;BME280;67727;50.236;22.452;2023-10-19T00:32:16;99299.27;;;1.10;80.74
78431;BME280;67727;50.236;22.452;2023-10-19T00:34:44;99296.77;;;1.09;80.91
78431;BME280;67727;50.236;22.452;2023-10-19T00:37:19;99296.45;;;1.06;81.12
78431;BME280;67727;50.236;22.452;2023-10-19T00:39:54;99291.82;;;1.03;81.11
78431;BME280;67727;50.236;22.452;2023-10-19T00:42:23;99287.77;;;1.00;81.40
78431;BME280;67727;50.236;22.452;2023-10-19T00:44:58;99287.33;;;0.97;81.45
78431;BME280;67727;50.236;22.452;2023-10-19T00:47:31;99288.58;;;0.94;81.33
78431;BME280;67727;50.236;22.452;2023-10-19T00:50:08;99282.96;;;0.93;81.68
78431;BME280;67727;50.236;22.452;2023-10-19T00:52:43;99281.26;;;0.93;81.90
78431;BME280;67727;50.236;22.452;2023-10-19T00:55:17;99275.94;;;0.94;81.94
78431;BME280;67727;50.236;22.452;2023-10-19T00:57:48;99272.73;;;0.95;82.00
78431;BME280;67727;50.236;22.452;2023-10-19T01:00:16;99269.25;;;0.97;82.27
78431;BME280;67727;50.236;22.452;2023-10-19T01:03:00;99266.91;;;1.00;82.12
78431;BME280;67727;50.236;22.452;2023-10-19T01:05:27;99264.85;;;1.02;81.73
78431;BME280;67727;50.236;22.452;2023-10-19T01:08:03;99259.77;;;1.02;81.94
78431;BME280;67727;50.236;22.452;2023-10-19T01:10:41;99256.52;;;1.01;81.80
78431;BME280;67727;50.236;22.452;2023-10-19T01:13:09;99251.16;;;1.01;81.71
78431;BME280;67727;50.236;22.452;2023-10-19T01:15:36;99246.87;;;0.98;81.67
78431;BME280;67727;50.236;22.452;2023-10-19T01:18:04;99241.77;;;0.94;81.75
78431;BME280;67727;50.236;22.452;2023-10-19T01:20:32;99242.47;;;0.92;81.66
78431;BME280;67727;50.236;22.452;2023-10-19T01:23:01;99235.59;;;0.91;81.95
78431;BME280;67727;50.236;22.452;2023-10-19T01:28:17;99230.52;;;0.92;82.30
78431;BME280;67727;50.236;22.452;2023-10-19T01:30:45;99227.64;;;0.93;82.45
78431;BME280;67727;50.236;22.452;2023-10-19T01:33:12;99228.38;;;0.95;82.62
78431;BME280;67727;50.236;22.452;2023-10-19T01:35:45;99222.45;;;0.97;82.40
78431;BME280;67727;50.236;22.452;2023-10-19T01:38:31;99220.14;;;0.99;82.69
78431;BME280;67727;50.236;22.452;2023-10-19T01:40:59;99224.59;;;0.98;82.51
78431;BME280;67727;50.236;22.452;2023-10-19T01:43:27;99223.71;;;0.96;82.77
78431;BME280;67727;50.236;22.452;2023-10-19T01:45:59;99222.66;;;0.94;82.56
78431;BME280;67727;50.236;22.452;2023-10-19T01:48:31;99219.33;;;0.90;82.63
78431;BME280;67727;50.236;22.452;2023-10-19T01:51:01;99218.55;;;0.89;82.70
78431;BME280;67727;50.236;22.452;2023-10-19T01:53:33;99211.28;;;0.91;82.83
78431;BME280;67727;50.236;22.452;2023-10-19T01:56:03;99211.36;;;0.92;82.82
78431;BME280;67727;50.236;22.452;2023-10-19T01:58:32;99205.52;;;0.93;82.70
78431;BME280;67727;50.236;22.452;2023-10-19T02:01:04;99204.32;;;0.95;82.07
78431;BME280;67727;50.236;22.452;2023-10-19T02:03:41;99199.98;;;0.95;82.61
78431;BME280;67727;50.236;22.452;2023-10-19T02:06:10;99200.52;;;0.95;82.61
78431;BME280;67727;50.236;22.452;2023-10-19T02:08:53;99197.13;;;0.94;82.56
78431;BME280;67727;50.236;22.452;2023-10-19T02:11:27;99194.48;;;0.92;82.43
78431;BME280;67727;50.236;22.452;2023-10-19T02:13:56;99195.66;;;0.91;82.67
78431;BME280;67727;50.236;22.452;2023-10-19T02:16:27;99193.73;;;0.89;82.67
78431;BME280;67727;50.236;22.452;2023-10-19T02:18:56;99187.48;;;0.87;83.08
78431;BME280;67727;50.236;22.452;2023-10-19T02:21:23;99191.34;;;0.86;83.05
78431;BME280;67727;50.236;22.452;2023-10-19T02:23:53;99187.81;;;0.87;82.88
78431;BME280;67727;50.236;22.452;2023-10-19T02:26:21;99184.02;;;0.89;83.05
78431;BME280;67727;50.236;22.452;2023-10-19T02:28:49;99176.60;;;0.90;83.25
78431;BME280;67727;50.236;22.452;2023-10-19T02:31:20;99174.71;;;0.92;83.10
78431;BME280;67727;50.236;22.452;2023-10-19T02:33:53;99174.35;;;0.94;83.23
78431;BME280;67727;50.236;22.452;2023-10-19T02:36:26;99174.85;;;0.96;83.18
78431;BME280;67727;50.236;22.452;2023-10-19T02:38:58;99175.16;;;0.98;82.79
78431;BME280;67727;50.236;22.452;2023-10-19T02:41:29;99165.65;;;1.00;83.05
78431;BME280;67727;50.236;22.452;2023-10-19T02:43:56;99166.41;;;0.99;83.14
78431;BME280;67727;50.236;22.452;2023-10-19T02:46:36;99169.30;;;0.98;83.03
78431;BME280;67727;50.236;22.452;2023-10-19T02:49:09;99169.25;;;0.96;82.87
78431;BME280;67727;50.236;22.452;2023-10-19T02:51:43;99169.73;;;0.93;82.76
78431;BME280;67727;50.236;22.452;2023-10-19T02:54:17;99168.93;;;0.90;83.00
78431;BME280;67727;50.236;22.452;2023-10-19T02:56:51;99164.45;;;0.88;82.82
78431;BME280;67727;50.236;22.452;2023-10-19T02:59:22;99161.90;;;0.87;82.76
78431;BME280;67727;50.236;22.452;2023-10-19T03:04:28;99161.11;;;0.88;82.43
78431;BME280;67727;50.236;22.452;2023-10-19T03:06:57;99157.98;;;0.88;82.66
78431;BME280;67727;50.236;22.452;2023-10-19T03:09:24;99155.61;;;0.89;82.61
78431;BME280;67727;50.236;22.452;2023-10-19T03:11:54;99146.96;;;0.91;82.52
78431;BME280;67727;50.236;22.452;2023-10-19T03:14:31;99145.54;;;0.91;82.07
78431;BME280;67727;50.236;22.452;2023-10-19T03:16:58;99142.77;;;0.93;82.39
78431;BME280;67727;50.236;22.452;2023-10-19T03:19:29;99135.14;;;0.93;82.35
78431;BME280;67727;50.236;22.452;2023-10-19T03:21:56;99135.13;;;0.90;82.12
78431;BME280;67727;50.236;22.452;2023-10-19T03:24:26;99133.12;;;0.88;81.96
78431;BME280;67727;50.236;22.452;2023-10-19T03:27:03;99127.96;;;0.85;82.06
78431;BME280;67727;50.236;22.452;2023-10-19T03:29:44;99118.61;;;0.80;82.33
78431;BME280;67727;50.236;22.452;2023-10-19T03:32:26;99116.98;;;0.77;82.17
78431;BME280;67727;50.236;22.452;2023-10-19T03:34:55;99117.34;;;0.74;82.32
78431;BME280;67727;50.236;22.452;2023-10-19T03:37:23;99115.55;;;0.75;82.07
78431;BME280;67727;50.236;22.452;2023-10-19T03:39:51;99106.31;;;0.77;82.15
78431;BME280;67727;50.236;22.452;2023-10-19T03:42:18;99104.11;;;0.83;82.15
78431;BME280;67727;50.236;22.452;2023-10-19T03:44:47;99101.67;;;0.87;81.95
78431;BME280;67727;50.236;22.452;2023-10-19T03:47:14;99093.80;;;0.90;81.47
78431;BME280;67727;50.236;22.452;2023-10-19T03:49:46;99086.50;;;0.90;81.36
78431;BME280;67727;50.236;22.452;2023-10-19T03:52:13;99083.12;;;0.89;81.60
78431;BME280;67727;50.236;22.452;2023-10-19T03:54:40;99078.34;;;0.86;81.61
78431;BME280;67727;50.236;22.452;2023-10-19T03:57:10;99078.16;;;0.81;81.59
78431;BME280;67727;50.236;22.452;2023-10-19T03:59:43;99073.83;;;0.77;81.80
78431;BME280;67727;50.236;22.452;2023-10-19T04:02:11;99071.48;;;0.74;81.88
78431;BME280;67727;50.236;22.452;2023-10-19T04:04:43;99075.25;;;0.72;82.08
78431;BME280;67727;50.236;22.452;2023-10-19T04:07:11;99070.58;;;0.72;82.27
78431;BME280;67727;50.236;22.452;2023-10-19T04:09:54;99070.80;;;0.74;82.54
78431;BME280;67727;50.236;22.452;2023-10-19T04:12:39;99065.55;;;0.76;82.79
78431;BME280;67727;50.236;22.452;2023-10-19T04:15:10;99059.00;;;0.77;82.94
78431;BME280;67727;50.236;22.452;2023-10-19T04:17:37;99054.73;;;0.79;82.62
78431;BME280;67727;50.236;22.452;2023-10-19T04:20:09;99049.64;;;0.79;82.70
78431;BME280;67727;50.236;22.452;2023-10-19T04:22:46;99035.92;;;0.79;82.79
78431;BME280;67727;50.236;22.452;2023-10-19T04:25:15;99037.92;;;0.78;82.71
78431;BME280;67727;50.236;22.452;2023-10-19T04:27:46;99037.28;;;0.77;82.70
78431;BME280;67727;50.236;22.452;2023-10-19T04:30:14;99031.67;;;0.76;82.66
78431;BME280;67727;50.236;22.452;2023-10-19T04:32:45;99027.97;;;0.76;82.87
78431;BME280;67727;50.236;22.452;2023-10-19T04:35:13;99037.48;;;0.79;82.96
78431;BME280;67727;50.236;22.452;2023-10-19T04:37:41;99026.85;;;0.82;83.00
78431;BME280;67727;50.236;22.452;2023-10-19T04:40:09;99022.77;;;0.85;82.98
78431;BME280;67727;50.236;22.452;2023-10-19T04:42:39;99026.35;;;0.88;82.80
78431;BME280;67727;50.236;22.452;2023-10-19T04:45:06;99021.79;;;0.90;82.67
78431;BME280;67727;50.236;22.452;2023-10-19T04:47:33;99014.77;;;0.93;83.18
78431;BME280;67727;50.236;22.452;2023-10-19T04:50:04;99017.73;;;0.95;83.00
78431;BME280;67727;50.236;22.452;2023-10-19T04:52:31;99011.94;;;0.95;82.90
78431;BME280;67727;50.236;22.452;2023-10-19T04:54:59;99007.16;;;0.94;83.05
78431;BME280;67727;50.236;22.452;2023-10-19T04:57:26;99005.91;;;0.93;82.69
78431;BME280;67727;50.236;22.452;2023-10-19T04:59:53;98999.91;;;0.92;82.75
78431;BME280;67727;50.236;22.452;2023-10-19T05:02:20;99004.27;;;0.89;82.81
78431;BME280;67727;50.236;22.452;2023-10-19T05:04:47;98997.93;;;0.88;82.64
78431;BME280;67727;50.236;22.452;2023-10-19T05:07:14;99007.54;;;0.88;82.56
78431;BME280;67727;50.236;22.452;2023-10-19T05:09:45;99004.34;;;0.89;82.82
78431;BME280;67727;50.236;22.452;2023-10-19T05:12:13;99006.06;;;0.91;82.49
78431;BME280;67727;50.236;22.452;2023-10-19T05:14:42;99000.12;;;0.93;82.57
78431;BME280;67727;50.236;22.452;2023-10-19T05:17:09;98993.66;;;0.95;82.45
78431;BME280;67727;50.236;22.452;2023-10-19T05:19:37;99011.41;;;0.97;82.39
78431;BME280;67727;50.236;22.452;2023-10-19T05:22:05;98997.34;;;0.99;82.46
78431;BME280;67727;50.236;22.452;2023-10-19T05:24:33;98987.93;;;0.97;82.87
78431;BME280;67727;50.236;22.452;2023-10-19T05:27:00;98994.83;;;0.94;82.55
78431;BME280;67727;50.236;22.452;2023-10-19T05:29:27;98988.14;;;0.93;82.87
78431;BME280;67727;50.236;22.452;2023-10-19T05:31:54;98987.91;;;0.92;82.61
78431;BME280;67727;50.236;22.452;2023-10-19T05:34:21;98989.27;;;0.92;83.07
78431;BME280;67727;50.236;22.452;2023-10-19T05:36:48;98987.41;;;0.93;82.95
78431;BME280;67727;50.236;22.452;2023-10-19T05:39:18;98986.81;;;0.96;83.17
78431;BME280;67727;50.236;22.452;2023-10-19T05:41:45;98983.19;;;1.00;82.95
78431;BME280;67727;50.236;22.452;2023-10-19T05:44:12;98980.70;;;1.04;83.24
78431;BME280;67727;50.236;22.452;2023-10-19T05:46:39;98981.84;;;1.09;83.09
78431;BME280;67727;50.236;22.452;2023-10-19T05:49:07;98981.69;;;1.15;82.86
78431;BME280;67727;50.236;22.452;2023-10-19T05:51:34;98975.55;;;1.21;82.78
78431;BME280;67727;50.236;22.452;2023-10-19T05:54:01;98973.69;;;1.26;82.81
78431;BME280;67727;50.236;22.452;2023-10-19T05:56:31;98974.92;;;1.30;82.48
78431;BME280;67727;50.236;22.452;2023-10-19T05:59:00;98973.43;;;1.33;82.57
78431;BME280;67727;50.236;22.452;2023-10-19T06:01:28;98975.48;;;1.36;82.52
78431;BME280;67727;50.236;22.452;2023-10-19T06:03:55;98973.98;;;1.39;82.53
78431;BME280;67727;50.236;22.452;2023-10-19T06:06:22;98983.58;;;1.45;82.40
78431;BME280;67727;50.236;22.452;2023-10-19T06:08:49;98969.61;;;1.53;82.70
78431;BME280;67727;50.236;22.452;2023-10-19T06:11:22;98983.28;;;1.64;82.86
78431;BME280;67727;50.236;22.452;2023-10-19T06:13:49;98966.89;;;1.77;82.39
78431;BME280;67727;50.236;22.452;2023-10-19T06:16:17;98963.63;;;1.90;82.39
78431;BME280;67727;50.236;22.452;2023-10-19T06:18:44;98964.39;;;2.03;82.20
78431;BME280;67727;50.236;22.452;2023-10-19T06:21:11;98961.39;;;2.18;82.20
78431;BME280;67727;50.236;22.452;2023-10-19T06:23:39;98957.46;;;2.32;81.99
78431;BME280;67727;50.236;22.452;2023-10-19T06:26:10;98953.86;;;2.47;81.76
78431;BME280;67727;50.236;22.452;2023-10-19T06:28:39;98955.13;;;2.56;81.87
78431;BME280;67727;50.236;22.452;2023-10-19T06:31:07;98952.39;;;2.64;81.72
78431;BME280;67727;50.236;22.452;2023-10-19T06:33:35;98952.98;;;2.75;81.44
78431;BME280;67727;50.236;22.452;2023-10-19T06:36:03;98950.75;;;2.85;81.11
78431;BME280;67727;50.236;22.452;2023-10-19T06:38:29;98950.19;;;2.93;81.56
78431;BME280;67727;50.236;22.452;2023-10-19T06:40:59;98944.73;;;3.03;80.97
78431;BME280;67727;50.236;22.452;2023-10-19T06:43:26;98947.48;;;3.11;80.63
78431;BME280;67727;50.236;22.452;2023-10-19T06:45:57;98942.46;;;3.17;80.45
78431;BME280;67727;50.236;22.452;2023-10-19T06:48:24;98937.90;;;3.23;80.50
78431;BME280;67727;50.236;22.452;2023-10-19T06:50:50;98932.26;;;3.31;80.47
78431;BME280;67727;50.236;22.452;2023-10-19T06:53:17;98931.36;;;3.40;80.44
78431;BME280;67727;50.236;22.452;2023-10-19T06:55:45;98923.03;;;3.48;80.37
78431;BME280;67727;50.236;22.452;2023-10-19T06:58:11;98919.60;;;3.58;80.25
78431;BME280;67727;50.236;22.452;2023-10-19T07:00:39;98916.94;;;3.69;79.97
78431;BME280;67727;50.236;22.452;2023-10-19T07:03:09;98918.02;;;3.81;79.44
78431;BME280;67727;50.236;22.452;2023-10-19T07:05:37;98916.34;;;3.91;79.47
78431;BME280;67727;50.236;22.452;2023-10-19T07:08:05;98909.69;;;3.99;79.00
78431;BME280;67727;50.236;22.452;2023-10-19T07:10:33;98912.10;;;4.07;79.02
78431;BME280;67727;50.236;22.452;2023-10-19T07:13:01;98896.85;;;4.11;78.16
78431;BME280;67727;50.236;22.452;2023-10-19T07:15:28;98896.60;;;4.14;78.46
78431;BME280;67727;50.236;22.452;2023-10-19T07:17:56;98891.58;;;4.17;78.45
78431;BME280;67727;50.236;22.452;2023-10-19T07:20:24;98882.14;;;4.20;78.19
78431;BME280;67727;50.236;22.452;2023-10-19T07:23:03;98877.41;;;4.23;77.96
78431;BME280;67727;50.236;22.452;2023-10-19T07:25:48;98878.63;;;4.30;77.97
78431;BME280;67727;50.236;22.452;2023-10-19T07:28:19;98878.46;;;4.38;78.09
78431;BME280;67727;50.236;22.452;2023-10-19T07:30:46;98874.89;;;4.47;78.08
78431;BME280;67727;50.236;22.452;2023-10-19T07:33:14;98867.65;;;4.55;77.96
78431;BME280;67727;50.236;22.452;2023-10-19T07:35:45;98860.19;;;4.61;77.95
78431;BME280;67727;50.236;22.452;2023-10-19T07:38:14;98855.65;;;4.66;78.17
78431;BME280;67727;50.236;22.452;2023-10-19T07:40:42;98852.52;;;4.75;78.13
78431;BME280;67727;50.236;22.452;2023-10-19T07:43:10;98848.87;;;4.81;78.02
78431;BME280;67727;50.236;22.452;2023-10-19T07:45:37;98850.56;;;4.93;78.24
78431;BME280;67727;50.236;22.452;2023-10-19T07:48:05;98844.90;;;5.05;77.88
78431;BME280;67727;50.236;22.452;2023-10-19T07:50:38;98841.11;;;5.16;77.89
78431;BME280;67727;50.236;22.452;2023-10-19T07:53:09;98839.94;;;5.29;78.08
78431;BME280;67727;50.236;22.452;2023-10-19T07:55:36;98839.30;;;5.43;77.79
78431;BME280;67727;50.236;22.452;2023-10-19T07:58:05;98832.58;;;5.53;76.89
78431;BME280;67727;50.236;22.452;2023-10-19T08:00:35;98832.59;;;5.63;76.55
78431;BME280;67727;50.236;22.452;2023-10-19T08:03:03;98835.52;;;5.68;76.43
78431;BME280;67727;50.236;22.452;2023-10-19T08:05:32;98828.83;;;5.73;76.49
78431;BME280;67727;50.236;22.452;2023-10-19T08:07:59;98824.56;;;5.77;75.89
78431;BME280;67727;50.236;22.452;2023-10-19T08:10:27;98820.55;;;5.77;75.17
78431;BME280;67727;50.236;22.452;2023-10-19T08:12:54;98815.46;;;5.77;75.16
78431;BME280;67727;50.236;22.452;2023-10-19T08:15:21;98813.09;;;5.81;75.37
78431;BME280;67727;50.236;22.452;2023-10-19T08:17:50;98808.50;;;5.86;75.10
78431;BME280;67727;50.236;22.452;2023-10-19T08:20:17;98809.95;;;5.92;75.47
78431;BME280;67727;50.236;22.452;2023-10-19T08:22:56;98810.48;;;5.98;75.13
78431;BME280;67727;50.236;22.452;2023-10-19T08:25:24;98807.27;;;6.04;74.72
78431;BME280;67727;50.236;22.452;2023-10-19T08:27:54;98807.74;;;6.07;74.77
78431;BME280;67727;50.236;22.452;2023-10-19T08:30:24;98797.17;;;6.11;74.82
78431;BME280;67727;50.236;22.452;2023-10-19T08:32:51;98794.70;;;6.16;74.75
78431;BME280;67727;50.236;22.452;2023-10-19T08:35:20;98786.68;;;6.22;74.76
78431;BME280;67727;50.236;22.452;2023-10-19T08:37:55;98782.19;;;6.31;74.55
78431;BME280;67727;50.236;22.452;2023-10-19T08:40:25;98784.70;;;6.41;74.84
78431;BME280;67727;50.236;22.452;2023-10-19T08:42:53;98782.97;;;6.53;74.62
78431;BME280;67727;50.236;22.452;2023-10-19T08:45:22;98774.88;;;6.64;74.33
78431;BME280;67727;50.236;22.452;2023-10-19T08:47:53;98768.33;;;6.73;74.05
78431;BME280;67727;50.236;22.452;2023-10-19T08:50:25;98760.20;;;6.80;73.50
78431;BME280;67727;50.236;22.452;2023-10-19T08:52:54;98763.02;;;6.85;73.42
78431;BME280;67727;50.236;22.452;2023-10-19T08:55:21;98771.69;;;6.89;73.66
78431;BME280;67727;50.236;22.452;2023-10-19T08:57:49;98767.54;;;6.93;73.24
78431;BME280;67727;50.236;22.452;2023-10-19T09:00:17;98761.16;;;6.97;72.96
78431;BME280;67727;50.236;22.452;2023-10-19T09:02:45;98767.41;;;7.02;73.27
78431;BME280;67727;50.236;22.452;2023-10-19T09:05:12;98762.71;;;7.09;73.29
78431;BME280;67727;50.236;22.452;2023-10-19T09:07:55;98755.41;;;7.19;73.23
78431;BME280;67727;50.236;22.452;2023-10-19T09:10:22;98746.96;;;7.28;72.75
78431;BME280;67727;50.236;22.452;2023-10-19T09:13:02;98755.85;;;7.38;73.20
78431;BME280;67727;50.236;22.452;2023-10-19T09:15:30;98750.71;;;7.47;73.00
78431;BME280;67727;50.236;22.452;2023-10-19T09:18:13;98746.63;;;7.53;72.52
78431;BME280;67727;50.236;22.452;2023-10-19T09:20:42;98743.70;;;7.62;72.69
78431;BME280;67727;50.236;22.452;2023-10-19T09:23:09;98731.34;;;7.68;72.30
78431;BME280;67727;50.236;22.452;2023-10-19T09:25:37;98726.76;;;7.74;72.06
78431;BME280;67727;50.236;22.452;2023-10-19T09:28:06;98716.55;;;7.83;72.08
78431;BME280;67727;50.236;22.452;2023-10-19T09:30:33;98711.73;;;7.98;72.38
78431;BME280;67727;50.236;22.452;2023-10-19T09:33:00;98712.13;;;8.21;72.15
78431;BME280;67727;50.236;22.452;2023-10-19T09:35:28;98709.02;;;8.61;71.97
78431;BME280;67727;50.236;22.452;2023-10-19T09:37:57;98704.73;;;9.09;71.01
78431;BME280;67727;50.236;22.452;2023-10-19T09:40:26;98691.51;;;9.51;69.74
78431;BME280;67727;50.236;22.452;2023-10-19T09:42:56;98687.02;;;9.88;67.98
78431;BME280;67727;50.236;22.452;2023-10-19T09:45:27;98686.39;;;10.19;67.86
78431;BME280;67727;50.236;22.452;2023-10-19T09:48:01;98683.88;;;10.48;65.61
78431;BME280;67727;50.236;22.452;2023-10-19T09:50:30;98669.40;;;10.64;64.69
78431;BME280;67727;50.236;22.452;2023-10-19T09:52:57;98662.11;;;10.80;64.82
78431;BME280;67727;50.236;22.452;2023-10-19T09:55:34;98651.11;;;10.96;64.36
78431;BME280;67727;50.236;22.452;2023-10-19T09:58:09;98646.68;;;11.11;64.16
78431;BME280;67727;50.236;22.452;2023-10-19T10:00:38;98643.31;;;11.29;64.62
78431;BME280;67727;50.236;22.452;2023-10-19T10:03:50;98642.02;;;11.44;63.40
78431;BME280;67727;50.236;22.452;2023-10-19T10:06:31;98641.14;;;11.51;62.40
78431;BME280;67727;50.236;22.452;2023-10-19T10:09:20;98635.48;;;11.46;61.83
78431;BME280;67727;50.236;22.452;2023-10-19T10:11:53;98631.74;;;11.35;62.01
78431;BME280;67727;50.236;22.452;2023-10-19T10:14:24;98635.52;;;11.27;62.57
78431;BME280;67727;50.236;22.452;2023-10-19T10:17:04;98630.41;;;11.28;62.71
78431;BME280;67727;50.236;22.452;2023-10-19T10:19:36;98624.73;;;11.29;62.27
78431;BME280;67727;50.236;22.452;2023-10-19T10:22:04;98625.02;;;11.28;62.55
78431;BME280;67727;50.236;22.452;2023-10-19T10:24:41;98619.89;;;11.32;63.47
78431;BME280;67727;50.236;22.452;2023-10-19T10:27:08;98613.68;;;11.46;63.40
78431;BME280;67727;50.236;22.452;2023-10-19T10:29:36;98613.14;;;11.63;63.19
78431;BME280;67727;50.236;22.452;2023-10-19T10:32:03;98610.06;;;11.79;62.14
78431;BME280;67727;50.236;22.452;2023-10-19T10:37:09;98603.67;;;12.04;61.03
78431;BME280;67727;50.236;22.452;2023-10-19T10:39:39;98593.54;;;12.11;61.26
78431;BME280;67727;50.236;22.452;2023-10-19T10:42:09;98598.86;;;12.22;61.73
78431;BME280;67727;50.236;22.452;2023-10-19T10:44:45;98596.77;;;12.29;61.91
78431;BME280;67727;50.236;22.452;2023-10-19T10:49:53;98589.85;;;12.44;61.46
78431;BME280;67727;50.236;22.452;2023-10-19T10:52:27;98587.05;;;12.53;62.11
78431;BME280;67727;50.236;22.452;2023-10-19T10:55:12;98574.90;;;12.62;61.82
78431;BME280;67727;50.236;22.452;2023-10-19T10:57:41;98565.02;;;12.65;61.45
78431;BME280;67727;50.236;22.452;2023-10-19T11:02:59;98558.98;;;12.63;60.73
78431;BME280;67727;50.236;22.452;2023-10-19T11:05:27;98552.89;;;12.53;61.61
78431;BME280;67727;50.236;22.452;2023-10-19T11:08:11;98550.60;;;12.48;61.69
78431;BME280;67727;50.236;22.452;2023-10-19T11:10:48;98545.23;;;12.40;61.89
78431;BME280;67727;50.236;22.452;2023-10-19T11:13:16;98549.00;;;12.34;62.23
78431;BME280;67727;50.236;22.452;2023-10-19T11:15:54;98552.30;;;12.25;62.22
78431;BME280;67727;50.236;22.452;2023-10-19T11:18:38;98549.61;;;12.15;62.58
78431;BME280;67727;50.236;22.452;2023-10-19T11:21:13;98539.06;;;12.05;63.02
78431;BME280;67727;50.236;22.452;2023-10-19T11:23:48;98531.24;;;11.95;63.15
78431;BME280;67727;50.236;22.452;2023-10-19T11:26:18;98519.48;;;11.85;63.83
78431;BME280;67727;50.236;22.452;2023-10-19T11:28:45;98519.86;;;11.80;64.50
78431;BME280;67727;50.236;22.452;2023-10-19T11:31:21;98519.42;;;11.80;65.52
78431;BME280;67727;50.236;22.452;2023-10-19T11:33:52;98527.05;;;11.86;65.22
78431;BME280;67727;50.236;22.452;2023-10-19T11:36:20;98534.71;;;11.90;64.95
78431;BME280;67727;50.236;22.452;2023-10-19T11:42:29;98517.23;;;11.87;65.15
78431;BME280;67727;50.236;22.452;2023-10-19T11:44:56;98523.05;;;11.84;65.32
78431;BME280;67727;50.236;22.452;2023-10-19T11:47:23;98525.39;;;11.80;65.39
78431;BME280;67727;50.236;22.452;2023-10-19T11:49:50;98523.98;;;11.73;64.60
78431;BME280;67727;50.236;22.452;2023-10-19T11:52:17;98529.30;;;11.62;64.53
78431;BME280;67727;50.236;22.452;2023-10-19T11:54:45;98537.19;;;11.53;64.97
78431;BME280;67727;50.236;22.452;2023-10-19T11:57:12;98532.92;;;11.47;65.27
78431;BME280;67727;50.236;22.452;2023-10-19T11:59:39;98523.72;;;11.41;65.55
78431;BME280;67727;50.236;22.452;2023-10-19T12:02:07;98514.37;;;11.36;66.12
78431;BME280;67727;50.236;22.452;2023-10-19T12:04:36;98515.92;;;11.33;66.53
78431;BME280;67727;50.236;22.452;2023-10-19T12:07:03;98515.77;;;11.31;66.97
78431;BME280;67727;50.236;22.452;2023-10-19T12:09:29;98512.22;;;11.32;67.14
78431;BME280;67727;50.236;22.452;2023-10-19T12:11:56;98502.94;;;11.33;67.38
78431;BME280;67727;50.236;22.452;2023-10-19T12:14:23;98501.23;;;11.36;67.55
78431;BME280;67727;50.236;22.452;2023-10-19T12:16:50;98499.80;;;11.37;67.85
78431;BME280;67727;50.236;22.452;2023-10-19T12:19:17;98491.76;;;11.38;67.98
78431;BME280;67727;50.236;22.452;2023-10-19T12:21:45;98480.56;;;11.38;68.29
78431;BME280;67727;50.236;22.452;2023-10-19T12:24:12;98474.39;;;11.39;68.52
78431;BME280;67727;50.236;22.452;2023-10-19T12:26:39;98466.76;;;11.39;68.82
78431;BME280;67727;50.236;22.452;2023-10-19T12:29:06;98461.94;;;11.39;68.77
78431;BME280;67727;50.236;22.452;2023-10-19T12:31:37;98459.70;;;11.39;68.90
78431;BME280;67727;50.236;22.452;2023-10-19T12:34:06;98456.26;;;11.40;68.86
78431;BME280;67727;50.236;22.452;2023-10-19T12:36:34;98449.54;;;11.40;68.92
78431;BME280;67727;50.236;22.452;2023-10-19T12:39:02;98450.16;;;11.41;69.09
78431;BME280;67727;50.236;22.452;2023-10-19T12:41:31;98439.85;;;11.43;69.20
78431;BME280;67727;50.236;22.452;2023-10-19T12:43:59;98435.34;;;11.45;69.12
78431;BME280;67727;50.236;22.452;2023-10-19T12:46:29;98429.58;;;11.46;69.23
78431;BME280;67727;50.236;22.452;2023-10-19T12:48:56;98422.10;;;11.46;69.26
78431;BME280;67727;50.236;22.452;2023-10-19T12:51:25;98427.01;;;11.45;69.40
78431;BME280;67727;50.236;22.452;2023-10-19T12:53:52;98421.39;;;11.43;69.40
78431;BME280;67727;50.236;22.452;2023-10-19T12:56:20;98419.48;;;11.42;69.45
78431;BME280;67727;50.236;22.452;2023-10-19T12:58:47;98422.28;;;11.41;69.40
78431;BME280;67727;50.236;22.452;2023-10-19T13:01:16;98417.09;;;11.39;69.60
78431;BME280;67727;50.236;22.452;2023-10-19T13:03:46;98407.33;;;11.39;69.82
78431;BME280;67727;50.236;22.452;2023-10-19T13:06:14;98400.08;;;11.41;69.69
78431;BME280;67727;50.236;22.452;2023-10-19T13:08:41;98394.03;;;11.44;69.83
78431;BME280;67727;50.236;22.452;2023-10-19T13:11:08;98395.16;;;11.46;69.72
78431;BME280;67727;50.236;22.452;2023-10-19T13:13:36;98386.98;;;11.48;69.70
78431;BME280;67727;50.236;22.452;2023-10-19T13:16:04;98387.79;;;11.49;69.71
78431;BME280;67727;50.236;22.452;2023-10-19T13:18:32;98382.98;;;11.48;69.78
78431;BME280;67727;50.236;22.452;2023-10-19T13:21:02;98373.72;;;11.47;69.96
78431;BME280;67727;50.236;22.452;2023-10-19T13:23:32;98373.05;;;11.45;70.02
78431;BME280;67727;50.236;22.452;2023-10-19T13:26:05;98370.81;;;11.42;70.07
78431;BME280;67727;50.236;22.452;2023-10-19T13:28:44;98367.73;;;11.39;70.10
78431;BME280;67727;50.236;22.452;2023-10-19T13:31:11;98363.70;;;11.39;70.40